sensor_id;sensor_type;location;lat;lon;timestamp;temperature;humidity
10390;DHT22;5241;47.830;12.972;2023-02-15T00:00:21;0.90;99.90
10390;DHT22;5241;47.830;12.972;2023-02-15T00:02:47;0.80;99.90
10390;DHT22;5241;47.830;12.972;2023-02-15T00:05:12;0.90;99.90
10390;DHT22;5241;47.830;12.972;2023-02-15T00:07:38;0.80;99.90
10390;DHT22;5241;47.830;12.972;2023-02-15T00:10:05;0.80;99.90
10390;DHT22;5241;47.830;12.972;2023-02-15T00:12:31;0.80;99.90
10390;DHT22;5241;47.830;12.972;2023-02-15T00:14:56;0.80;99.90
10390;DHT22;5241;47.830;12.972;2023-02-15T00:17:22;0.70;99.90
10390;DHT22;5241;47.830;12.972;2023-02-15T00:19:47;0.70;99.90
10390;DHT22;5241;47.830;12.972;2023-02-15T00:22:13;0.70;99.90
10390;DHT22;5241;47.830;12.972;2023-02-15T00:24:38;0.60;99.90
10390;DHT22;5241;47.830;12.972;2023-02-15T00:27:04;0.60;99.90
10390;DHT22;5241;47.830;12.972;2023-02-15T00:29:30;0.60;99.90
10390;DHT22;5241;47.830;12.972;2023-02-15T00:31:55;0.60;99.90
10390;DHT22;5241;47.830;12.972;2023-02-15T00:34:23;0.60;99.90
10390;DHT22;5241;47.830;12.972;2023-02-15T00:36:49;0.60;99.90
10390;DHT22;5241;47.830;12.972;2023-02-15T00:39:16;0.70;99.90
10390;DHT22;5241;47.830;12.972;2023-02-15T00:41:42;0.70;99.90
10390;DHT22;5241;47.830;12.972;2023-02-15T00:44:09;0.70;99.90
10390;DHT22;5241;47.830;12.972;2023-02-15T00:46:34;0.60;99.90
10390;DHT22;5241;47.830;12.972;2023-02-15T00:49:00;0.70;99.90
10390;DHT22;5241;47.830;12.972;2023-02-15T00:51:26;0.60;99.90
10390;DHT22;5241;47.830;12.972;2023-02-15T00:53:52;0.50;99.90
10390;DHT22;5241;47.830;12.972;2023-02-15T00:56:18;0.50;99.90
10390;DHT22;5241;47.830;12.972;2023-02-15T00:58:43;0.50;99.90
10390;DHT22;5241;47.830;12.972;2023-02-15T01:01:18;0.50;99.90
10390;DHT22;5241;47.830;12.972;2023-02-15T01:03:44;0.70;99.90
10390;DHT22;5241;47.830;12.972;2023-02-15T01:06:11;0.60;99.90
10390;DHT22;5241;47.830;12.972;2023-02-15T01:08:37;0.60;99.90
10390;DHT22;5241;47.830;12.972;2023-02-15T01:11:11;0.60;99.90
10390;DHT22;5241;47.830;12.972;2023-02-15T01:13:37;0.60;99.90
10390;DHT22;5241;47.830;12.972;2023-02-15T01:16:03;0.40;99.90
10390;DHT22;5241;47.830;12.972;2023-02-15T01:18:29;0.50;99.90
10390;DHT22;5241;47.830;12.972;2023-02-15T01:20:55;0.40;99.90
10390;DHT22;5241;47.830;12.972;2023-02-15T01:23:21;0.40;99.90
10390;DHT22;5241;47.830;12.972;2023-02-15T01:25:46;0.40;99.90
10390;DHT22;5241;47.830;12.972;2023-02-15T01:28:12;0.30;99.90
10390;DHT22;5241;47.830;12.972;2023-02-15T01:30:37;0.30;99.90
10390;DHT22;5241;47.830;12.972;2023-02-15T01:33:03;0.30;99.90
10390;DHT22;5241;47.830;12.972;2023-02-15T01:35:29;0.30;99.90
10390;DHT22;5241;47.830;12.972;2023-02-15T01:37:57;0.30;99.90
10390;DHT22;5241;47.830;12.972;2023-02-15T01:40:24;0.20;99.90
10390;DHT22;5241;47.830;12.972;2023-02-15T01:42:53;0.10;99.90
10390;DHT22;5241;47.830;12.972;2023-02-15T01:50:24;0.00;99.90
10390;DHT22;5241;47.830;12.972;2023-02-15T01:53:01;0.00;99.90
10390;DHT22;5241;47.830;12.972;2023-02-15T01:55:33;-0.10;99.90
10390;DHT22;5241;47.830;12.972;2023-02-15T01:57:59;-0.10;99.90
10390;DHT22;5241;47.830;12.972;2023-02-15T02:00:25;-0.10;99.90
10390;DHT22;5241;47.830;12.972;2023-02-15T02:02:53;-0.20;99.90
10390;DHT22;5241;47.830;12.972;2023-02-15T02:05:20;-0.20;99.90
10390;DHT22;5241;47.830;12.972;2023-02-15T02:07:46;-0.20;99.90
10390;DHT22;5241;47.830;12.972;2023-02-15T02:10:17;-0.10;99.90
10390;DHT22;5241;47.830;12.972;2023-02-15T02:12:45;0.00;99.90
10390;DHT22;5241;47.830;12.972;2023-02-15T02:15:12;-0.10;99.90
10390;DHT22;5241;47.830;12.972;2023-02-15T02:18:05;0.00;99.90
10390;DHT22;5241;47.830;12.972;2023-02-15T02:29:11;0.00;99.90
10390;DHT22;5241;47.830;12.972;2023-02-15T02:34:33;0.00;99.90
10390;DHT22;5241;47.830;12.972;2023-02-15T02:37:22;0.00;99.90
10390;DHT22;5241;47.830;12.972;2023-02-15T02:40:10;0.00;99.90
10390;DHT22;5241;47.830;12.972;2023-02-15T02:42:39;0.00;99.90
10390;DHT22;5241;47.830;12.972;2023-02-15T02:45:13;-0.10;99.90
10390;DHT22;5241;47.830;12.972;2023-02-15T02:47:48;0.00;99.90
10390;DHT22;5241;47.830;12.972;2023-02-15T02:50:22;0.00;99.90
10390;DHT22;5241;47.830;12.972;2023-02-15T02:52:50;0.10;99.90
10390;DHT22;5241;47.830;12.972;2023-02-15T02:57:54;-0.10;99.90
10390;DHT22;5241;47.830;12.972;2023-02-15T03:00:22;-0.10;99.90
10390;DHT22;5241;47.830;12.972;2023-02-15T03:02:52;-0.10;99.90
10390;DHT22;5241;47.830;12.972;2023-02-15T03:05:21;-0.10;99.90
10390;DHT22;5241;47.830;12.972;2023-02-15T03:07:52;-0.20;99.90
10390;DHT22;5241;47.830;12.972;2023-02-15T03:10:21;-0.20;99.90
10390;DHT22;5241;47.830;12.972;2023-02-15T03:12:48;-0.10;99.90
10390;DHT22;5241;47.830;12.972;2023-02-15T03:15:18;-0.10;99.90
10390;DHT22;5241;47.830;12.972;2023-02-15T03:17:49;0.10;99.90
10390;DHT22;5241;47.830;12.972;2023-02-15T03:20:30;0.00;99.90
10390;DHT22;5241;47.830;12.972;2023-02-15T03:23:01;-0.10;99.90
10390;DHT22;5241;47.830;12.972;2023-02-15T03:25:34;-0.20;99.90
10390;DHT22;5241;47.830;12.972;2023-02-15T03:28:05;-0.30;99.90
10390;DHT22;5241;47.830;12.972;2023-02-15T03:30:32;-0.40;99.90
10390;DHT22;5241;47.830;12.972;2023-02-15T03:33:00;-0.40;99.90
10390;DHT22;5241;47.830;12.972;2023-02-15T03:35:30;-0.40;99.90
10390;DHT22;5241;47.830;12.972;2023-02-15T03:38:00;-0.50;99.90
10390;DHT22;5241;47.830;12.972;2023-02-15T03:40:30;-0.50;99.90
10390;DHT22;5241;47.830;12.972;2023-02-15T03:43:19;-0.50;99.90
10390;DHT22;5241;47.830;12.972;2023-02-15T03:45:51;-0.40;99.90
10390;DHT22;5241;47.830;12.972;2023-02-15T03:48:44;-0.50;99.90
10390;DHT22;5241;47.830;12.972;2023-02-15T03:51:17;-0.50;99.90
10390;DHT22;5241;47.830;12.972;2023-02-15T03:54:28;-0.40;99.90
10390;DHT22;5241;47.830;12.972;2023-02-15T03:57:17;-0.40;99.90
10390;DHT22;5241;47.830;12.972;2023-02-15T04:00:11;-0.50;99.90
10390;DHT22;5241;47.830;12.972;2023-02-15T04:03:02;-0.40;99.90
10390;DHT22;5241;47.830;12.972;2023-02-15T04:05:31;-0.40;99.90
10390;DHT22;5241;47.830;12.972;2023-02-15T04:07:57;-0.40;99.90
10390;DHT22;5241;47.830;12.972;2023-02-15T04:10:22;-0.40;99.90
10390;DHT22;5241;47.830;12.972;2023-02-15T04:13:06;-0.40;99.90
10390;DHT22;5241;47.830;12.972;2023-02-15T04:15:32;-0.40;99.90
10390;DHT22;5241;47.830;12.972;2023-02-15T04:18:16;-0.30;99.90
10390;DHT22;5241;47.830;12.972;2023-02-15T04:20:45;-0.30;99.90
10390;DHT22;5241;47.830;12.972;2023-02-15T04:23:30;-0.40;99.90
10390;DHT22;5241;47.830;12.972;2023-02-15T04:26:14;-0.50;99.90
10390;DHT22;5241;47.830;12.972;2023-02-15T04:28:39;-0.50;99.90
10390;DHT22;5241;47.830;12.972;2023-02-15T04:31:05;-0.40;99.90
10390;DHT22;5241;47.830;12.972;2023-02-15T04:33:30;-0.50;99.90
10390;DHT22;5241;47.830;12.972;2023-02-15T04:35:56;-0.50;99.90
10390;DHT22;5241;47.830;12.972;2023-02-15T04:38:22;-0.50;99.90
10390;DHT22;5241;47.830;12.972;2023-02-15T04:40:52;-0.50;99.90
10390;DHT22;5241;47.830;12.972;2023-02-15T04:43:18;-0.50;99.90
10390;DHT22;5241;47.830;12.972;2023-02-15T04:45:51;-0.50;99.90
10390;DHT22;5241;47.830;12.972;2023-02-15T04:48:17;-0.50;99.90
10390;DHT22;5241;47.830;12.972;2023-02-15T04:50:43;-0.60;99.90
10390;DHT22;5241;47.830;12.972;2023-02-15T04:53:10;-0.50;99.90
10390;DHT22;5241;47.830;12.972;2023-02-15T04:55:35;-0.50;99.90
10390;DHT22;5241;47.830;12.972;2023-02-15T04:58:01;-0.50;99.90
10390;DHT22;5241;47.830;12.972;2023-02-15T05:00:26;-0.50;99.90
10390;DHT22;5241;47.830;12.972;2023-02-15T05:02:52;-0.60;99.90
10390;DHT22;5241;47.830;12.972;2023-02-15T05:05:18;-0.60;99.90
10390;DHT22;5241;47.830;12.972;2023-02-15T05:07:44;-0.50;99.90
10390;DHT22;5241;47.830;12.972;2023-02-15T05:10:09;-0.50;99.90
10390;DHT22;5241;47.830;12.972;2023-02-15T05:12:35;-0.50;99.90
10390;DHT22;5241;47.830;12.972;2023-02-15T05:15:00;-0.60;99.90
10390;DHT22;5241;47.830;12.972;2023-02-15T05:17:26;-0.40;99.90
10390;DHT22;5241;47.830;12.972;2023-02-15T05:19:51;-0.50;99.90
10390;DHT22;5241;47.830;12.972;2023-02-15T05:22:17;-0.50;99.90
10390;DHT22;5241;47.830;12.972;2023-02-15T05:24:42;-0.60;99.90
10390;DHT22;5241;47.830;12.972;2023-02-15T05:27:26;-0.60;99.90
10390;DHT22;5241;47.830;12.972;2023-02-15T05:30:11;-0.60;99.90
10390;DHT22;5241;47.830;12.972;2023-02-15T05:32:40;-0.50;99.90
10390;DHT22;5241;47.830;12.972;2023-02-15T05:35:06;-0.50;99.90
10390;DHT22;5241;47.830;12.972;2023-02-15T05:37:33;-0.50;99.90
10390;DHT22;5241;47.830;12.972;2023-02-15T05:39:58;-0.40;99.90
10390;DHT22;5241;47.830;12.972;2023-02-15T05:42:24;-0.50;99.90
10390;DHT22;5241;47.830;12.972;2023-02-15T05:44:49;-0.60;99.90
10390;DHT22;5241;47.830;12.972;2023-02-15T05:47:15;-0.60;99.90
10390;DHT22;5241;47.830;12.972;2023-02-15T05:49:40;-0.60;99.90
10390;DHT22;5241;47.830;12.972;2023-02-15T05:52:06;-0.50;99.90
10390;DHT22;5241;47.830;12.972;2023-02-15T05:54:31;-0.50;99.90
10390;DHT22;5241;47.830;12.972;2023-02-15T05:56:57;-0.70;99.90
10390;DHT22;5241;47.830;12.972;2023-02-15T05:59:23;-0.70;99.90
10390;DHT22;5241;47.830;12.972;2023-02-15T06:01:48;-0.70;99.90
10390;DHT22;5241;47.830;12.972;2023-02-15T06:04:14;-0.80;99.90
10390;DHT22;5241;47.830;12.972;2023-02-15T06:06:39;-0.80;99.90
10390;DHT22;5241;47.830;12.972;2023-02-15T06:09:05;-0.70;99.90
10390;DHT22;5241;47.830;12.972;2023-02-15T06:11:30;-0.70;99.90
10390;DHT22;5241;47.830;12.972;2023-02-15T06:13:56;-0.50;99.90
10390;DHT22;5241;47.830;12.972;2023-02-15T06:16:22;-0.40;99.90
10390;DHT22;5241;47.830;12.972;2023-02-15T06:18:47;-0.50;99.90
10390;DHT22;5241;47.830;12.972;2023-02-15T06:21:13;-0.40;99.90
10390;DHT22;5241;47.830;12.972;2023-02-15T06:23:38;-0.40;99.90
10390;DHT22;5241;47.830;12.972;2023-02-15T06:26:04;-0.40;99.90
10390;DHT22;5241;47.830;12.972;2023-02-15T06:28:30;-0.50;99.90
10390;DHT22;5241;47.830;12.972;2023-02-15T06:30:55;-0.50;99.90
10390;DHT22;5241;47.830;12.972;2023-02-15T06:33:21;-0.50;99.90
10390;DHT22;5241;47.830;12.972;2023-02-15T06:35:47;-0.60;99.90
10390;DHT22;5241;47.830;12.972;2023-02-15T06:38:13;-0.70;99.90
10390;DHT22;5241;47.830;12.972;2023-02-15T06:40:38;-0.60;99.90
10390;DHT22;5241;47.830;12.972;2023-02-15T06:43:04;-0.50;99.90
10390;DHT22;5241;47.830;12.972;2023-02-15T06:45:29;-0.60;99.90
10390;DHT22;5241;47.830;12.972;2023-02-15T06:47:55;-0.60;99.90
10390;DHT22;5241;47.830;12.972;2023-02-15T06:50:20;-0.50;99.90
10390;DHT22;5241;47.830;12.972;2023-02-15T06:52:46;-0.40;99.90
10390;DHT22;5241;47.830;12.972;2023-02-15T06:55:11;-0.20;99.90
10390;DHT22;5241;47.830;12.972;2023-02-15T06:57:37;-0.20;99.90
10390;DHT22;5241;47.830;12.972;2023-02-15T07:00:03;-0.30;99.90
10390;DHT22;5241;47.830;12.972;2023-02-15T07:02:30;-0.30;99.90
10390;DHT22;5241;47.830;12.972;2023-02-15T07:04:56;-0.40;99.90
10390;DHT22;5241;47.830;12.972;2023-02-15T07:07:22;-0.30;99.90
10390;DHT22;5241;47.830;12.972;2023-02-15T07:09:48;-0.30;99.90
10390;DHT22;5241;47.830;12.972;2023-02-15T07:12:13;-0.40;99.90
10390;DHT22;5241;47.830;12.972;2023-02-15T07:14:57;-0.30;99.90
10390;DHT22;5241;47.830;12.972;2023-02-15T07:17:23;-0.40;99.90
10390;DHT22;5241;47.830;12.972;2023-02-15T07:19:49;-0.40;99.90
10390;DHT22;5241;47.830;12.972;2023-02-15T07:22:14;-0.20;99.90
10390;DHT22;5241;47.830;12.972;2023-02-15T07:24:40;-0.10;99.90
10390;DHT22;5241;47.830;12.972;2023-02-15T07:27:07;-0.10;99.90
10390;DHT22;5241;47.830;12.972;2023-02-15T07:29:32;-0.10;99.90
10390;DHT22;5241;47.830;12.972;2023-02-15T07:31:58;-0.10;99.90
10390;DHT22;5241;47.830;12.972;2023-02-15T07:34:23;-0.20;99.90
10390;DHT22;5241;47.830;12.972;2023-02-15T07:36:50;-0.20;99.90
10390;DHT22;5241;47.830;12.972;2023-02-15T07:39:16;-0.20;99.90
10390;DHT22;5241;47.830;12.972;2023-02-15T07:41:41;-0.20;99.90
10390;DHT22;5241;47.830;12.972;2023-02-15T07:44:11;-0.10;99.90
10390;DHT22;5241;47.830;12.972;2023-02-15T07:46:38;0.00;99.90
10390;DHT22;5241;47.830;12.972;2023-02-15T07:49:04;0.10;99.90
10390;DHT22;5241;47.830;12.972;2023-02-15T07:51:29;0.10;99.90
10390;DHT22;5241;47.830;12.972;2023-02-15T07:53:55;0.10;99.90
10390;DHT22;5241;47.830;12.972;2023-02-15T07:56:21;0.20;99.90
10390;DHT22;5241;47.830;12.972;2023-02-15T07:58:46;0.30;99.90
10390;DHT22;5241;47.830;12.972;2023-02-15T08:01:20;0.40;99.90
10390;DHT22;5241;47.830;12.972;2023-02-15T08:03:45;0.50;99.90
10390;DHT22;5241;47.830;12.972;2023-02-15T08:06:11;0.30;99.90
10390;DHT22;5241;47.830;12.972;2023-02-15T08:08:39;0.30;99.90
10390;DHT22;5241;47.830;12.972;2023-02-15T08:11:20;0.30;99.90
10390;DHT22;5241;47.830;12.972;2023-02-15T08:13:59;0.40;99.90
10390;DHT22;5241;47.830;12.972;2023-02-15T08:16:53;0.40;99.90
10390;DHT22;5241;47.830;12.972;2023-02-15T08:19:29;0.50;99.90
10390;DHT22;5241;47.830;12.972;2023-02-15T08:22:01;0.70;99.90
10390;DHT22;5241;47.830;12.972;2023-02-15T08:24:30;0.70;99.90
10390;DHT22;5241;47.830;12.972;2023-02-15T08:26:57;0.70;99.90
10390;DHT22;5241;47.830;12.972;2023-02-15T08:29:26;0.70;99.90
10390;DHT22;5241;47.830;12.972;2023-02-15T08:31:57;0.80;99.90
10390;DHT22;5241;47.830;12.972;2023-02-15T08:34:28;1.00;99.90
10390;DHT22;5241;47.830;12.972;2023-02-15T08:36:54;0.80;99.90
10390;DHT22;5241;47.830;12.972;2023-02-15T08:39:20;1.00;99.90
10390;DHT22;5241;47.830;12.972;2023-02-15T08:41:47;0.90;99.90
10390;DHT22;5241;47.830;12.972;2023-02-15T08:44:15;0.90;99.90
10390;DHT22;5241;47.830;12.972;2023-02-15T08:46:42;1.00;99.90
10390;DHT22;5241;47.830;12.972;2023-02-15T08:49:09;1.10;99.90
10390;DHT22;5241;47.830;12.972;2023-02-15T08:51:38;1.30;99.90
10390;DHT22;5241;47.830;12.972;2023-02-15T08:54:09;1.40;99.90
10390;DHT22;5241;47.830;12.972;2023-02-15T08:56:38;1.50;99.90
10390;DHT22;5241;47.830;12.972;2023-02-15T08:59:04;1.60;99.90
10390;DHT22;5241;47.830;12.972;2023-02-15T09:01:32;1.80;99.90
10390;DHT22;5241;47.830;12.972;2023-02-15T09:04:00;1.90;99.90
10390;DHT22;5241;47.830;12.972;2023-02-15T09:06:27;1.90;99.90
10390;DHT22;5241;47.830;12.972;2023-02-15T09:08:53;2.00;99.90
10390;DHT22;5241;47.830;12.972;2023-02-15T09:11:23;1.90;99.90
10390;DHT22;5241;47.830;12.972;2023-02-15T09:13:56;1.80;99.90
10390;DHT22;5241;47.830;12.972;2023-02-15T09:16:23;2.00;99.90
10390;DHT22;5241;47.830;12.972;2023-02-15T09:18:50;1.80;99.90
10390;DHT22;5241;47.830;12.972;2023-02-15T09:21:18;1.60;99.90
10390;DHT22;5241;47.830;12.972;2023-02-15T09:23:46;1.60;99.90
10390;DHT22;5241;47.830;12.972;2023-02-15T09:26:14;1.70;99.90
10390;DHT22;5241;47.830;12.972;2023-02-15T09:28:40;1.90;99.90
10390;DHT22;5241;47.830;12.972;2023-02-15T09:31:12;2.10;99.90
10390;DHT22;5241;47.830;12.972;2023-02-15T09:33:39;2.20;99.90
10390;DHT22;5241;47.830;12.972;2023-02-15T09:36:20;2.40;99.90
10390;DHT22;5241;47.830;12.972;2023-02-15T09:44:26;2.20;99.90
10390;DHT22;5241;47.830;12.972;2023-02-15T09:49:59;2.40;99.90
10390;DHT22;5241;47.830;12.972;2023-02-15T10:06:29;3.90;99.90
10390;DHT22;5241;47.830;12.972;2023-02-15T10:09:38;3.80;99.90
10390;DHT22;5241;47.830;12.972;2023-02-15T10:17:48;3.20;99.90
10390;DHT22;5241;47.830;12.972;2023-02-15T10:28:18;4.10;99.90
10390;DHT22;5241;47.830;12.972;2023-02-15T10:30:48;4.40;99.90
10390;DHT22;5241;47.830;12.972;2023-02-15T10:33:22;4.50;99.90
10390;DHT22;5241;47.830;12.972;2023-02-15T10:43:58;3.90;99.90
10390;DHT22;5241;47.830;12.972;2023-02-15T10:57:14;5.60;99.90
10390;DHT22;5241;47.830;12.972;2023-02-15T11:07:54;4.80;99.90
10390;DHT22;5241;47.830;12.972;2023-02-15T11:10:44;5.60;99.90
10390;DHT22;5241;47.830;12.972;2023-02-15T11:13:15;5.80;99.90
10390;DHT22;5241;47.830;12.972;2023-02-15T11:15:53;5.60;99.90
10390;DHT22;5241;47.830;12.972;2023-02-15T11:18:39;5.00;99.90
10390;DHT22;5241;47.830;12.972;2023-02-15T11:21:17;4.30;99.90
10390;DHT22;5241;47.830;12.972;2023-02-15T11:23:46;4.00;99.90
10390;DHT22;5241;47.830;12.972;2023-02-15T11:26:33;4.30;99.90
10390;DHT22;5241;47.830;12.972;2023-02-15T11:31:45;5.10;99.90
10390;DHT22;5241;47.830;12.972;2023-02-15T11:34:29;5.80;99.90
10390;DHT22;5241;47.830;12.972;2023-02-15T11:37:10;6.20;99.90
10390;DHT22;5241;47.830;12.972;2023-02-15T11:39:36;6.30;99.90
10390;DHT22;5241;47.830;12.972;2023-02-15T11:42:09;7.00;99.90
10390;DHT22;5241;47.830;12.972;2023-02-15T11:44:54;6.30;99.90
10390;DHT22;5241;47.830;12.972;2023-02-15T11:47:22;6.50;99.90
10390;DHT22;5241;47.830;12.972;2023-02-15T11:49:48;7.00;99.90
10390;DHT22;5241;47.830;12.972;2023-02-15T11:52:16;7.20;99.90
10390;DHT22;5241;47.830;12.972;2023-02-15T11:54:46;6.80;99.90
10390;DHT22;5241;47.830;12.972;2023-02-15T11:57:43;6.60;99.90
10390;DHT22;5241;47.830;12.972;2023-02-15T12:00:25;6.90;99.90
10390;DHT22;5241;47.830;12.972;2023-02-15T12:02:54;7.10;99.90
10390;DHT22;5241;47.830;12.972;2023-02-15T12:05:24;7.20;99.90
10390;DHT22;5241;47.830;12.972;2023-02-15T12:08:01;7.20;99.90
10390;DHT22;5241;47.830;12.972;2023-02-15T12:10:32;7.50;99.90
10390;DHT22;5241;47.830;12.972;2023-02-15T12:13:18;7.50;99.90
10390;DHT22;5241;47.830;12.972;2023-02-15T12:15:47;7.60;99.90
10390;DHT22;5241;47.830;12.972;2023-02-15T12:21:28;8.20;99.90
10390;DHT22;5241;47.830;12.972;2023-02-15T12:23:55;8.40;99.90
10390;DHT22;5241;47.830;12.972;2023-02-15T12:26:40;8.50;99.90
10390;DHT22;5241;47.830;12.972;2023-02-15T12:29:16;8.10;99.90
10390;DHT22;5241;47.830;12.972;2023-02-15T12:31:44;7.90;99.90
10390;DHT22;5241;47.830;12.972;2023-02-15T12:34:25;8.10;99.90
10390;DHT22;5241;47.830;12.972;2023-02-15T12:36:53;7.80;99.90
10390;DHT22;5241;47.830;12.972;2023-02-15T12:39:32;7.60;99.90
10390;DHT22;5241;47.830;12.972;2023-02-15T12:42:04;7.90;99.90
10390;DHT22;5241;47.830;12.972;2023-02-15T12:44:35;8.10;99.90
10390;DHT22;5241;47.830;12.972;2023-02-15T12:47:26;8.20;99.90
10390;DHT22;5241;47.830;12.972;2023-02-15T12:50:15;7.50;99.90
10390;DHT22;5241;47.830;12.972;2023-02-15T12:52:48;7.00;99.90
10390;DHT22;5241;47.830;12.972;2023-02-15T12:55:26;7.20;99.90
10390;DHT22;5241;47.830;12.972;2023-02-15T12:58:06;7.60;99.90
10390;DHT22;5241;47.830;12.972;2023-02-15T13:00:31;7.90;99.90
10390;DHT22;5241;47.830;12.972;2023-02-15T13:02:58;7.90;99.90
10390;DHT22;5241;47.830;12.972;2023-02-15T13:05:32;7.90;99.90
10390;DHT22;5241;47.830;12.972;2023-02-15T13:08:17;7.90;99.90
10390;DHT22;5241;47.830;12.972;2023-02-15T13:11:00;7.50;99.90
10390;DHT22;5241;47.830;12.972;2023-02-15T13:13:29;7.30;99.90
10390;DHT22;5241;47.830;12.972;2023-02-15T13:15:59;6.80;99.90
10390;DHT22;5241;47.830;12.972;2023-02-15T13:18:34;6.90;99.90
10390;DHT22;5241;47.830;12.972;2023-02-15T13:23:31;6.40;99.90
10390;DHT22;5241;47.830;12.972;2023-02-15T13:25:59;6.40;99.90
10390;DHT22;5241;47.830;12.972;2023-02-15T13:28:37;6.20;99.90
10390;DHT22;5241;47.830;12.972;2023-02-15T13:31:11;6.10;99.90
10390;DHT22;5241;47.830;12.972;2023-02-15T13:33:38;6.00;99.90
10390;DHT22;5241;47.830;12.972;2023-02-15T13:36:14;5.90;99.90
10390;DHT22;5241;47.830;12.972;2023-02-15T13:44:24;5.70;99.90
10390;DHT22;5241;47.830;12.972;2023-02-15T13:47:05;5.60;99.90
10390;DHT22;5241;47.830;12.972;2023-02-15T13:52:21;5.70;99.90
10390;DHT22;5241;47.830;12.972;2023-02-15T13:57:41;5.50;99.90
10390;DHT22;5241;47.830;12.972;2023-02-15T14:14:03;5.40;99.90
10390;DHT22;5241;47.830;12.972;2023-02-15T14:24:43;5.20;99.90
10390;DHT22;5241;47.830;12.972;2023-02-15T14:27:41;5.30;99.90
10390;DHT22;5241;47.830;12.972;2023-02-15T14:30:28;5.20;99.90
10390;DHT22;5241;47.830;12.972;2023-02-15T14:35:27;5.20;99.90
10390;DHT22;5241;47.830;12.972;2023-02-15T14:38:29;5.20;99.90
10390;DHT22;5241;47.830;12.972;2023-02-15T14:41:18;5.20;99.90
10390;DHT22;5241;47.830;12.972;2023-02-15T14:44:19;5.10;99.90
10390;DHT22;5241;47.830;12.972;2023-02-15T14:47:19;5.00;99.90
10390;DHT22;5241;47.830;12.972;2023-02-15T14:49:46;4.90;99.90
10390;DHT22;5241;47.830;12.972;2023-02-15T14:52:12;4.80;99.90
10390;DHT22;5241;47.830;12.972;2023-02-15T14:59:37;4.70;99.90
10390;DHT22;5241;47.830;12.972;2023-02-15T15:04:38;4.70;99.90
10390;DHT22;5241;47.830;12.972;2023-02-15T15:10:07;4.70;99.90
10390;DHT22;5241;47.830;12.972;2023-02-15T15:12:42;4.60;99.90
10390;DHT22;5241;47.830;12.972;2023-02-15T15:15:13;4.60;99.90
10390;DHT22;5241;47.830;12.972;2023-02-15T15:20:10;4.50;99.90
10390;DHT22;5241;47.830;12.972;2023-02-15T15:22:40;4.50;99.90
10390;DHT22;5241;47.830;12.972;2023-02-15T15:25:09;4.50;99.90
10390;DHT22;5241;47.830;12.972;2023-02-15T15:27:47;4.50;99.90
10390;DHT22;5241;47.830;12.972;2023-02-15T15:32:46;4.40;99.90
10390;DHT22;5241;47.830;12.972;2023-02-15T15:35:35;4.40;99.90
10390;DHT22;5241;47.830;12.972;2023-02-15T15:49:31;4.20;99.90
10390;DHT22;5241;47.830;12.972;2023-02-15T15:52:01;4.20;99.90
10390;DHT22;5241;47.830;12.972;2023-02-15T15:54:28;4.10;99.90
10390;DHT22;5241;47.830;12.972;2023-02-15T15:56:57;4.00;99.90
10390;DHT22;5241;47.830;12.972;2023-02-15T15:59:26;4.00;99.90
10390;DHT22;5241;47.830;12.972;2023-02-15T16:01:52;3.90;99.90
10390;DHT22;5241;47.830;12.972;2023-02-15T16:04:27;3.80;99.90
10390;DHT22;5241;47.830;12.972;2023-02-15T16:06:53;3.80;99.90
10390;DHT22;5241;47.830;12.972;2023-02-15T16:09:22;3.70;99.90
10390;DHT22;5241;47.830;12.972;2023-02-15T16:11:54;3.60;99.90
10390;DHT22;5241;47.830;12.972;2023-02-15T16:14:30;3.40;99.90
10390;DHT22;5241;47.830;12.972;2023-02-15T16:16:59;3.20;99.90
10390;DHT22;5241;47.830;12.972;2023-02-15T16:19:30;3.10;99.90
10390;DHT22;5241;47.830;12.972;2023-02-15T16:21:59;2.90;99.90
10390;DHT22;5241;47.830;12.972;2023-02-15T16:28:05;2.60;99.90
10390;DHT22;5241;47.830;12.972;2023-02-15T16:30:34;2.40;99.90
10390;DHT22;5241;47.830;12.972;2023-02-15T16:33:07;2.20;99.90
10390;DHT22;5241;47.830;12.972;2023-02-15T16:35:33;2.20;99.90
10390;DHT22;5241;47.830;12.972;2023-02-15T16:37:59;2.10;99.90
10390;DHT22;5241;47.830;12.972;2023-02-15T16:40:27;2.00;99.90
10390;DHT22;5241;47.830;12.972;2023-02-15T16:43:02;2.00;99.90
10390;DHT22;5241;47.830;12.972;2023-02-15T16:45:30;1.80;99.90
10390;DHT22;5241;47.830;12.972;2023-02-15T16:47:57;1.80;99.90
10390;DHT22;5241;47.830;12.972;2023-02-15T16:50:30;1.70;99.90
10390;DHT22;5241;47.830;12.972;2023-02-15T16:52:57;1.70;99.90
10390;DHT22;5241;47.830;12.972;2023-02-15T16:55:28;1.50;99.90
10390;DHT22;5241;47.830;12.972;2023-02-15T16:57:57;1.40;99.90
10390;DHT22;5241;47.830;12.972;2023-02-15T17:00:26;1.40;99.90
10390;DHT22;5241;47.830;12.972;2023-02-15T17:03:19;1.30;99.90
10390;DHT22;5241;47.830;12.972;2023-02-15T17:05:47;1.20;99.90
10390;DHT22;5241;47.830;12.972;2023-02-15T17:11:10;1.20;99.90
10390;DHT22;5241;47.830;12.972;2023-02-15T17:13:36;1.20;99.90
10390;DHT22;5241;47.830;12.972;2023-02-15T17:21:08;1.10;99.90
10390;DHT22;5241;47.830;12.972;2023-02-15T17:23:40;1.00;99.90
10390;DHT22;5241;47.830;12.972;2023-02-15T17:26:19;0.90;99.90
10390;DHT22;5241;47.830;12.972;2023-02-15T17:28:48;0.90;99.90
10390;DHT22;5241;47.830;12.972;2023-02-15T17:31:17;0.70;99.90
10390;DHT22;5241;47.830;12.972;2023-02-15T17:33:43;0.60;99.90
10390;DHT22;5241;47.830;12.972;2023-02-15T17:36:11;0.60;99.90
10390;DHT22;5241;47.830;12.972;2023-02-15T17:38:40;0.60;99.90
10390;DHT22;5241;47.830;12.972;2023-02-15T17:41:06;0.60;99.90
10390;DHT22;5241;47.830;12.972;2023-02-15T17:43:32;0.60;99.90
10390;DHT22;5241;47.830;12.972;2023-02-15T17:45:58;0.60;99.90
10390;DHT22;5241;47.830;12.972;2023-02-15T17:48:36;0.50;99.90
10390;DHT22;5241;47.830;12.972;2023-02-15T17:51:05;0.50;99.90
10390;DHT22;5241;47.830;12.972;2023-02-15T17:53:32;0.50;99.90
10390;DHT22;5241;47.830;12.972;2023-02-15T17:55:58;0.50;99.90
10390;DHT22;5241;47.830;12.972;2023-02-15T17:58:23;0.50;99.90
10390;DHT22;5241;47.830;12.972;2023-02-15T18:00:52;0.40;99.90
10390;DHT22;5241;47.830;12.972;2023-02-15T18:03:49;0.30;99.90
10390;DHT22;5241;47.830;12.972;2023-02-15T18:06:35;0.30;99.90
10390;DHT22;5241;47.830;12.972;2023-02-15T18:09:22;0.30;99.90
10390;DHT22;5241;47.830;12.972;2023-02-15T18:12:22;0.40;99.90
10390;DHT22;5241;47.830;12.972;2023-02-15T18:14:49;0.50;99.90
10390;DHT22;5241;47.830;12.972;2023-02-15T18:17:16;0.50;99.90
10390;DHT22;5241;47.830;12.972;2023-02-15T18:19:43;0.50;99.90
10390;DHT22;5241;47.830;12.972;2023-02-15T18:22:15;0.50;99.90
10390;DHT22;5241;47.830;12.972;2023-02-15T18:24:41;0.50;99.90
10390;DHT22;5241;47.830;12.972;2023-02-15T18:27:09;0.50;99.90
10390;DHT22;5241;47.830;12.972;2023-02-15T18:29:35;0.50;99.90
10390;DHT22;5241;47.830;12.972;2023-02-15T18:32:00;0.40;99.90
10390;DHT22;5241;47.830;12.972;2023-02-15T18:34:32;0.40;99.90
10390;DHT22;5241;47.830;12.972;2023-02-15T18:37:01;0.40;99.90
10390;DHT22;5241;47.830;12.972;2023-02-15T18:39:35;0.40;99.90
10390;DHT22;5241;47.830;12.972;2023-02-15T18:42:02;0.40;99.90
10390;DHT22;5241;47.830;12.972;2023-02-15T18:44:29;0.40;99.90
10390;DHT22;5241;47.830;12.972;2023-02-15T18:46:54;0.40;99.90